createdAt,value
2018-08-09T00:01:45.131Z,96872.67
2018-08-09T00:04:13.785Z,96868.92
2018-08-09T00:06:42.136Z,96873.33
2018-08-09T00:09:10.699Z,96871.97
2018-08-09T00:11:39.699Z,96871.98
2018-08-09T00:14:09.479Z,96877.11
2018-08-09T00:16:38.065Z,96871.94
2018-08-09T00:19:06.620Z,96872.89
2018-08-09T00:21:35.415Z,96867.45
2018-08-09T00:24:05.276Z,96856.66
2018-08-09T00:26:33.629Z,96856.55
2018-08-09T00:29:01.966Z,96849.14
2018-08-09T00:31:30.351Z,96839.67
2018-08-09T00:33:58.751Z,96839.97
2018-08-09T00:36:27.107Z,96838.89
2018-08-09T00:38:56.425Z,96839.28
2018-08-09T00:41:24.775Z,96842.59
2018-08-09T00:43:53.329Z,96836.75
2018-08-09T00:46:21.959Z,96838.28
2018-08-09T00:48:50.329Z,96838.06
2018-08-09T00:51:18.707Z,96837.13
2018-08-09T00:53:47.075Z,96831.36
2018-08-09T00:56:15.452Z,96829.23
2018-08-09T00:58:43.835Z,96834.97
2018-08-09T01:01:12.582Z,96840.66
2018-08-09T01:03:41.534Z,96835.44
2018-08-09T01:06:09.858Z,96830.88
2018-08-09T01:08:38.596Z,96834.20
2018-08-09T01:11:07.203Z,96828.77
2018-08-09T01:13:35.561Z,96834.20
2018-08-09T01:16:04.424Z,96825.67
2018-08-09T01:18:32.792Z,96832.24
2018-08-09T01:21:01.151Z,96834.61
2018-08-09T01:23:29.502Z,96831.88
2018-08-09T01:25:59.376Z,96830.00
2018-08-09T01:28:27.748Z,96838.41
2018-08-09T01:30:56.066Z,96832.73
2018-08-09T01:33:24.432Z,96827.80
2018-08-09T01:35:52.963Z,96830.98
2018-08-09T01:38:21.784Z,96823.59
2018-08-09T01:40:51.167Z,96815.41
2018-08-09T01:43:31.189Z,96809.95
2018-08-09T01:46:00.121Z,96817.86
2018-08-09T01:48:28.475Z,96815.18
2018-08-09T01:50:57.451Z,96805.28
2018-08-09T01:53:25.811Z,96808.73
2018-08-09T01:55:54.146Z,96805.14
2018-08-09T01:58:22.519Z,96806.39
2018-08-09T02:00:50.918Z,96801.31
2018-08-09T02:03:19.270Z,96802.03
2018-08-09T02:05:48.383Z,96794.84
2018-08-09T02:08:17.107Z,96793.00
2018-08-09T02:10:45.470Z,96787.22
2018-08-09T02:13:13.821Z,96788.83
2018-08-09T02:15:42.471Z,96791.55
2018-08-09T02:18:10.801Z,96784.53
2018-08-09T02:20:39.110Z,96778.98
2018-08-09T02:23:07.399Z,96778.02
2018-08-09T02:25:35.999Z,96770.87
2018-08-09T02:28:04.323Z,96760.73
2018-08-09T02:30:32.643Z,96762.81
2018-08-09T02:33:01.635Z,96769.65
2018-08-09T02:35:29.956Z,96765.74
2018-08-09T02:37:58.528Z,96761.07
2018-08-09T02:40:28.163Z,96754.67
2018-08-09T02:42:56.735Z,96766.94
2018-08-09T02:45:26.143Z,96764.42
2018-08-09T02:47:54.451Z,96760.34
2018-08-09T02:50:22.798Z,96759.96
2018-08-09T02:52:51.844Z,96762.45
2018-08-09T02:55:20.193Z,96747.27
2018-08-09T02:57:49.188Z,96737.54
2018-08-09T03:00:17.542Z,96745.56
2018-08-09T03:02:46.246Z,96755.07
2018-08-09T03:05:14.604Z,96745.43
2018-08-09T03:07:42.932Z,96749.00
2018-08-09T03:10:11.271Z,96754.08
2018-08-09T03:12:39.546Z,96744.83
2018-08-09T03:15:08.241Z,96736.61
2018-08-09T03:17:36.543Z,96730.50
2018-08-09T03:20:04.923Z,96725.58
2018-08-09T03:22:33.211Z,96716.13
2018-08-09T03:25:01.691Z,96709.83
2018-08-09T03:27:29.990Z,96703.33
2018-08-09T03:29:58.517Z,96703.50
2018-08-09T03:32:26.810Z,96709.50
2018-08-09T03:34:56.043Z,96704.69
2018-08-09T03:37:24.348Z,96710.55
2018-08-09T03:39:52.662Z,96724.68
2018-08-09T03:42:22.244Z,96719.06
2018-08-09T03:44:50.567Z,96724.92
2018-08-09T03:47:18.903Z,96725.52
2018-08-09T03:49:48.130Z,96728.88
2018-08-09T03:52:16.455Z,96720.77
2018-08-09T03:54:45.239Z,96713.97
2018-08-09T03:57:14.582Z,96711.47
2018-08-09T03:59:42.970Z,96714.05
2018-08-09T04:02:11.215Z,96714.91
2018-08-09T04:04:39.551Z,96715.50
2018-08-09T04:07:07.887Z,96715.47
2018-08-09T04:09:36.198Z,96718.91
2018-08-09T04:12:04.544Z,96715.95
2018-08-09T04:14:32.842Z,96715.22
2018-08-09T04:17:05.300Z,96714.61
2018-08-09T04:19:33.693Z,96716.72
2018-08-09T04:22:02.019Z,96714.86
2018-08-09T04:24:30.348Z,96708.76
2018-08-09T04:26:58.655Z,96712.39
2018-08-09T04:29:26.959Z,96709.97
2018-08-09T04:31:55.624Z,96711.64
2018-08-09T04:34:23.972Z,96702.66
2018-08-09T04:36:52.303Z,96706.06
2018-08-09T04:39:21.234Z,96705.94
2018-08-09T04:41:49.567Z,96702.06
2018-08-09T04:44:17.882Z,96698.24
2018-08-09T04:46:46.191Z,96704.19
2018-08-09T04:49:14.493Z,96700.83
2018-08-09T04:51:42.807Z,96701.32
2018-08-09T04:54:11.099Z,96705.78
2018-08-09T04:56:39.412Z,96703.77
2018-08-09T04:59:07.723Z,96707.53
2018-08-09T05:01:36.022Z,96712.25
2018-08-09T05:04:04.316Z,96716.63
2018-08-09T05:06:32.635Z,96715.71
2018-08-09T05:09:01.339Z,96722.56
2018-08-09T05:11:29.646Z,96730.54
2018-08-09T05:13:57.964Z,96726.89
2018-08-09T05:16:26.628Z,96722.48
2018-08-09T05:18:54.926Z,96720.80
2018-08-09T05:21:23.246Z,96717.84
2018-08-09T05:23:51.546Z,96707.67
2018-08-09T05:26:19.943Z,96699.22
2018-08-09T05:28:48.227Z,96698.73
2018-08-09T05:31:16.531Z,96695.40
2018-08-09T05:33:44.940Z,96695.02
2018-08-09T05:36:13.367Z,96697.00
2018-08-09T05:38:41.658Z,96685.85
2018-08-09T05:41:09.983Z,96674.24
2018-08-09T05:43:38.717Z,96662.90
2018-08-09T05:46:07.718Z,96663.97
2018-08-09T05:48:36.012Z,96660.47
2018-08-09T05:51:04.774Z,96664.70
2018-08-09T05:53:33.110Z,96663.97
2018-08-09T05:56:01.423Z,96666.12
2018-08-09T05:58:29.727Z,96662.92
2018-08-09T06:00:58.069Z,96656.22
2018-08-09T06:03:26.380Z,96661.95
2018-08-09T06:05:55.180Z,96651.99
2018-08-09T06:08:23.495Z,96639.14
2018-08-09T06:10:51.819Z,96640.40
2018-08-09T06:13:20.170Z,96639.16
2018-08-09T06:15:49.503Z,96643.17
2018-08-09T06:18:18.026Z,96635.64
2018-08-09T06:20:46.351Z,96622.34
2018-08-09T06:23:14.688Z,96616.33
2018-08-09T06:25:43.035Z,96603.84
2018-08-09T06:28:11.336Z,96608.55
2018-08-09T06:30:40.072Z,96602.46
2018-08-09T06:33:08.634Z,96613.66
2018-08-09T06:35:36.979Z,96613.91
2018-08-09T06:38:05.347Z,96607.13
2018-08-09T06:40:33.992Z,96598.56
2018-08-09T06:43:02.313Z,96603.58
2018-08-09T06:45:30.643Z,96607.03
2018-08-09T06:47:58.978Z,96600.06
2018-08-09T06:50:27.311Z,96590.64
2018-08-09T06:52:55.631Z,96580.06
2018-08-09T06:55:24.403Z,96574.39
2018-08-09T06:57:52.727Z,96579.17
2018-08-09T07:00:21.424Z,96585.61
2018-08-09T07:02:50.127Z,96578.72
2018-08-09T07:05:18.447Z,96566.41
2018-08-09T07:07:46.834Z,96564.84
2018-08-09T07:10:15.142Z,96574.50
2018-08-09T07:12:43.516Z,96571.27
2018-08-09T07:15:13.011Z,96567.55
2018-08-09T07:17:41.926Z,96566.00
2018-08-09T07:20:10.767Z,96569.76
2018-08-09T07:22:40.431Z,96573.45
2018-08-09T07:25:09.123Z,96573.18
2018-08-09T07:27:37.618Z,96570.55
2018-08-09T07:30:07.804Z,96569.84
2018-08-09T07:32:36.159Z,96568.60
2018-08-09T07:35:04.633Z,96558.65
2018-08-09T07:37:32.937Z,96570.50
2018-08-09T07:40:01.286Z,96570.77
2018-08-09T07:42:29.607Z,96575.06
2018-08-09T07:44:57.947Z,96589.45
2018-08-09T07:47:26.882Z,96589.22
2018-08-09T07:49:55.499Z,96591.71
2018-08-09T07:52:23.829Z,96577.70
2018-08-09T07:54:52.523Z,96572.00
2018-08-09T07:57:20.860Z,96576.67
2018-08-09T07:59:49.182Z,96571.71
2018-08-09T08:02:17.489Z,96564.95
2018-08-09T08:04:45.782Z,96566.70
2018-08-09T08:07:14.117Z,96561.53
2018-08-09T08:09:42.412Z,96566.81
2018-08-09T08:12:10.718Z,96560.97
2018-08-09T08:14:39.003Z,96574.18
2018-08-09T08:17:07.335Z,96560.33
2018-08-09T08:19:35.836Z,96554.69
2018-08-09T08:22:04.407Z,96551.59
2018-08-09T08:24:32.693Z,96557.94
2018-08-09T08:27:01.380Z,96557.78
2018-08-09T08:29:30.370Z,96547.48
2018-08-09T08:31:59.087Z,96542.89
2018-08-09T08:34:27.459Z,96540.59
2018-08-09T08:36:56.095Z,96543.07
2018-08-09T08:39:24.391Z,96537.28
2018-08-09T08:41:52.745Z,96542.47
2018-08-09T08:44:21.042Z,96544.29
2018-08-09T08:46:49.379Z,96553.80
2018-08-09T08:49:18.067Z,96548.00
2018-08-09T08:51:46.379Z,96547.72
2018-08-09T08:54:14.871Z,96539.03
2018-08-09T08:56:43.207Z,96542.61
2018-08-09T08:59:11.519Z,96542.59
2018-08-09T09:01:39.826Z,96546.76
2018-08-09T09:04:08.557Z,96534.93
2018-08-09T09:06:36.843Z,96523.59
2018-08-09T09:09:09.612Z,96520.67
2018-08-09T09:11:37.939Z,96507.25
2018-08-09T09:14:06.287Z,96497.48
2018-08-09T09:16:36.012Z,96482.34
2018-08-09T09:19:04.422Z,96481.05
2018-08-09T09:21:32.710Z,96475.48
2018-08-09T09:24:01.035Z,96461.94
2018-08-09T09:26:29.350Z,96468.62
2018-08-09T09:28:57.650Z,96465.92
2018-08-09T09:31:26.631Z,96472.45
2018-08-09T09:33:54.963Z,96463.36
2018-08-09T09:36:23.703Z,96459.59
2018-08-09T09:38:52.023Z,96445.32
2018-08-09T09:41:20.365Z,96441.25
2018-08-09T09:43:48.658Z,96427.92
2018-08-09T09:46:17.004Z,96418.69
2018-08-09T09:48:45.314Z,96401.34
2018-08-09T09:51:13.631Z,96418.10
2018-08-09T09:53:41.979Z,96404.53
2018-08-09T09:56:10.324Z,96398.88
2018-08-09T09:58:39.082Z,96386.95
2018-08-09T10:01:12.735Z,96398.81
2018-08-09T10:03:41.080Z,96405.98
2018-08-09T10:06:09.392Z,96385.70
2018-08-09T10:08:37.707Z,96394.88
2018-08-09T10:11:05.985Z,96381.84
2018-08-09T10:13:34.287Z,96391.34
2018-08-09T10:16:02.579Z,96391.80
2018-08-09T10:18:30.918Z,96392.16
2018-08-09T10:20:59.211Z,96388.63
2018-08-09T10:23:27.943Z,96390.27
2018-08-09T10:25:56.246Z,96393.41
2018-08-09T10:28:24.927Z,96380.75
2018-08-09T10:30:53.223Z,96383.08
2018-08-09T10:33:21.532Z,96377.28
2018-08-09T10:35:50.116Z,96380.97
2018-08-09T10:38:18.442Z,96369.89
2018-08-09T10:40:46.773Z,96375.67
2018-08-09T10:43:15.098Z,96388.00
2018-08-09T10:45:43.904Z,96377.30
2018-08-09T10:48:12.263Z,96387.61
2018-08-09T10:50:40.828Z,96378.80
2018-08-09T10:53:09.167Z,96379.53
2018-08-09T10:55:37.472Z,96376.70
2018-08-09T10:58:05.895Z,96390.77
2018-08-09T11:00:34.252Z,96378.10
2018-08-09T11:03:02.574Z,96363.38
2018-08-09T11:05:31.385Z,96373.95
2018-08-09T11:07:59.702Z,96375.61
2018-08-09T11:10:28.023Z,96361.93
2018-08-09T11:12:56.348Z,96355.77
2018-08-09T11:15:24.654Z,96346.52
2018-08-09T11:17:52.967Z,96350.41
2018-08-09T11:20:21.298Z,96357.55
2018-08-09T11:22:49.623Z,96356.66
2018-08-09T11:25:17.936Z,96338.11
2018-08-09T11:27:46.727Z,96339.83
2018-08-09T11:30:15.103Z,96328.73
2018-08-09T11:32:44.487Z,96313.72
2018-08-09T11:35:13.103Z,96297.15
2018-08-09T11:37:41.779Z,96311.98
2018-08-09T11:40:10.135Z,96297.64
2018-08-09T11:42:38.496Z,96297.25
2018-08-09T11:45:07.387Z,96296.28
2018-08-09T11:47:35.945Z,96311.06
2018-08-09T11:50:04.710Z,96298.69
2018-08-09T11:52:33.048Z,96306.01
2018-08-09T11:55:01.500Z,96334.83
2018-08-09T11:57:30.220Z,96330.88
2018-08-09T11:59:58.627Z,96319.64
2018-08-09T12:02:27.003Z,96305.83
2018-08-09T12:04:55.334Z,96300.09
2018-08-09T12:07:24.968Z,96295.52
2018-08-09T12:09:53.340Z,96291.52
2018-08-09T12:12:21.698Z,96294.70
2018-08-09T12:14:50.073Z,96298.08
2018-08-09T12:17:18.411Z,96302.36
2018-08-09T12:19:46.789Z,96301.39
2018-08-09T12:22:15.394Z,96304.06
2018-08-09T12:24:43.778Z,96296.16
2018-08-09T12:27:12.174Z,96292.81
2018-08-09T12:29:40.569Z,96310.70
2018-08-09T12:32:08.947Z,96341.56
2018-08-09T12:34:37.356Z,96395.59
2018-08-09T12:37:05.851Z,96487.21
2018-08-09T12:39:34.286Z,96505.67
2018-08-09T12:42:02.643Z,96531.81
2018-08-09T12:44:31.075Z,96529.62
2018-08-09T12:46:59.611Z,96551.00
2018-08-09T12:49:28.508Z,96549.35
2018-08-09T12:51:56.893Z,96558.58
2018-08-09T12:54:25.300Z,96560.90
2018-08-09T12:56:53.716Z,96535.43
2018-08-09T12:59:22.138Z,96510.47
2018-08-09T13:01:50.975Z,96502.77
2018-08-09T13:04:19.342Z,96495.47
2018-08-09T13:06:48.633Z,96488.53
2018-08-09T13:09:17.383Z,96474.46
2018-08-09T13:11:46.003Z,96459.06
2018-08-09T13:14:14.419Z,96473.42
2018-08-09T13:16:42.772Z,96475.25
2018-08-09T13:19:11.200Z,96447.31
2018-08-09T13:21:39.564Z,96438.84
2018-08-09T13:24:08.003Z,96429.27
2018-08-09T13:26:37.028Z,96409.06
2018-08-09T13:29:05.683Z,96413.88
2018-08-09T13:31:34.385Z,96416.44
2018-08-09T13:34:02.807Z,96424.38
2018-08-09T13:36:31.527Z,96426.55
2018-08-09T13:38:59.938Z,96423.08
2018-08-09T13:41:28.313Z,96426.41
2018-08-09T13:43:56.694Z,96424.70
2018-08-09T13:46:25.423Z,96427.68
2018-08-09T13:48:53.819Z,96441.12
2018-08-09T13:51:22.263Z,96442.17
2018-08-09T13:53:50.971Z,96452.88
2018-08-09T13:56:19.328Z,96474.09
2018-08-09T13:58:47.993Z,96467.52
2018-08-09T14:01:16.375Z,96465.01
2018-08-09T14:03:45.047Z,96469.57
2018-08-09T14:06:13.401Z,96470.27
2018-08-09T14:08:41.783Z,96470.68
2018-08-09T14:11:10.196Z,96468.66
2018-08-09T14:13:38.577Z,96458.44
2018-08-09T14:16:07.438Z,96465.05
2018-08-09T14:18:35.792Z,96480.14
2018-08-09T14:21:04.190Z,96470.72
2018-08-09T14:23:32.527Z,96478.13
2018-08-09T14:26:00.929Z,96465.05
2018-08-09T14:28:29.287Z,96471.86
2018-08-09T14:30:58.139Z,96454.66
2018-08-09T14:33:26.900Z,96468.45
2018-08-09T14:35:55.718Z,96460.88
2018-08-09T14:38:24.067Z,96476.28
2018-08-09T14:40:52.567Z,96456.89
2018-08-09T14:43:20.966Z,96449.42
2018-08-09T14:45:49.353Z,96451.97
2018-08-09T14:48:17.745Z,96446.75
2018-08-09T14:50:46.107Z,96449.86
2018-08-09T14:53:14.835Z,96449.17
2018-08-09T14:55:43.647Z,96453.99
2018-08-09T14:58:12.080Z,96450.83
2018-08-09T15:00:40.690Z,96449.34
2018-08-09T15:03:09.064Z,96458.69
2018-08-09T15:05:37.566Z,96456.77
2018-08-09T15:08:06.307Z,96463.95
2018-08-09T15:10:34.667Z,96467.14
2018-08-09T15:13:03.057Z,96470.92
2018-08-09T15:15:31.499Z,96473.25
2018-08-09T15:17:59.948Z,96473.08
2018-08-09T15:20:28.367Z,96491.94
2018-08-09T15:22:57.595Z,96490.95
2018-08-09T15:25:25.942Z,96498.59
2018-08-09T15:27:54.295Z,96498.72
2018-08-09T15:30:22.652Z,96516.89
2018-08-09T15:32:50.974Z,96515.52
2018-08-09T15:35:19.371Z,96526.08
2018-08-09T15:37:47.691Z,96528.95
2018-08-09T15:40:16.311Z,96518.42
2018-08-09T15:42:44.747Z,96528.27
2018-08-09T15:45:14.534Z,96522.44
2018-08-09T15:47:43.179Z,96527.63
2018-08-09T15:50:16.218Z,96519.65
2018-08-09T15:52:44.538Z,96526.02
2018-08-09T15:55:13.782Z,96517.65
2018-08-09T15:57:42.145Z,96522.05
2018-08-09T16:00:17.617Z,96509.18
2018-08-09T16:02:46.179Z,96521.23
2018-08-09T16:05:14.549Z,96522.12
2018-08-09T16:07:44.319Z,96521.38
2018-08-09T16:10:14.141Z,96525.61
2018-08-09T16:12:42.486Z,96522.02
2018-08-09T16:15:13.812Z,96531.55
2018-08-09T16:17:42.375Z,96531.44
2018-08-09T16:20:11.574Z,96536.00
2018-08-09T16:22:39.951Z,96543.98
2018-08-09T16:25:15.711Z,96540.63
2018-08-09T16:27:45.132Z,96539.66
2018-08-09T16:30:15.690Z,96542.09
2018-08-09T16:32:44.175Z,96534.05
2018-08-09T16:35:13.047Z,96539.02
2018-08-09T16:37:41.959Z,96534.91
2018-08-09T16:40:13.076Z,96533.81
2018-08-09T16:42:42.234Z,96535.95
2018-08-09T16:45:11.384Z,96532.42
2018-08-09T16:47:40.054Z,96538.09
2018-08-09T16:50:09.799Z,96537.59
2018-08-09T16:52:38.135Z,96538.50
2018-08-09T16:55:08.474Z,96536.72
2018-08-09T16:57:37.203Z,96535.23
2018-08-09T17:00:08.018Z,96535.55
2018-08-09T17:02:36.802Z,96547.61
2018-08-09T17:05:06.514Z,96536.14
2018-08-09T17:07:34.870Z,96536.48
2018-08-09T17:10:03.231Z,96541.24
2018-08-09T17:12:31.579Z,96521.75
2018-08-09T17:14:59.919Z,96522.61
2018-08-09T17:17:28.671Z,96524.73
2018-08-09T17:19:57.890Z,96533.41
2018-08-09T17:22:26.237Z,96577.42
2018-08-09T17:24:54.591Z,96544.63
2018-08-09T17:27:22.963Z,96550.79
2018-08-09T17:29:51.307Z,96541.88
2018-08-09T17:32:19.691Z,96526.09
2018-08-09T17:34:48.262Z,96529.91
2018-08-09T17:37:16.672Z,96532.33
2018-08-09T17:39:44.988Z,96534.23
2018-08-09T17:42:13.327Z,96545.90
2018-08-09T17:44:41.674Z,96540.66
2018-08-09T17:47:10.048Z,96541.70
2018-08-09T17:49:38.582Z,96547.02
2018-08-09T17:52:06.915Z,96549.63
2018-08-09T17:54:35.238Z,96544.19
2018-08-09T17:57:03.600Z,96534.05
2018-08-09T17:59:32.100Z,96529.48
2018-08-09T18:02:00.423Z,96545.02
2018-08-09T18:04:29.412Z,96545.92
2018-08-09T18:06:57.790Z,96544.34
2018-08-09T18:09:26.139Z,96564.72
2018-08-09T18:11:54.872Z,96561.98
2018-08-09T18:14:23.960Z,96563.00
2018-08-09T18:16:53.023Z,96570.12
2018-08-09T18:19:21.347Z,96568.86
2018-08-09T18:21:49.682Z,96571.34
2018-08-09T18:24:18.003Z,96571.77
2018-08-09T18:26:46.379Z,96573.48
2018-08-09T18:29:17.243Z,96577.31
2018-08-09T18:31:46.620Z,96585.19
2018-08-09T18:34:15.306Z,96585.81
2018-08-09T18:36:44.554Z,96585.05
2018-08-09T18:39:13.652Z,96587.36
2018-08-09T18:41:42.040Z,96604.34
2018-08-09T18:44:10.399Z,96613.86
2018-08-09T18:46:38.731Z,96618.48
2018-08-09T18:49:07.556Z,96621.70
2018-08-09T18:51:37.665Z,96632.09
2018-08-09T18:54:08.095Z,96637.80
2018-08-09T18:56:36.427Z,96657.22
2018-08-09T18:59:04.771Z,96654.34
2018-08-09T19:01:33.152Z,96645.42
2018-08-09T19:04:01.504Z,96659.24
2018-08-09T19:06:29.831Z,96668.92
2018-08-09T19:08:58.368Z,96674.45
2018-08-09T19:11:26.871Z,96692.46
2018-08-09T19:13:55.213Z,96689.43
2018-08-09T19:16:23.522Z,96692.23
2018-08-09T19:18:51.915Z,96706.63
2018-08-09T19:21:20.267Z,96709.19
2018-08-09T19:23:48.618Z,96715.37
2018-08-09T19:26:17.404Z,96722.59
2018-08-09T19:28:45.746Z,96733.66
2018-08-09T19:31:14.116Z,96733.66
2018-08-09T19:33:42.470Z,96732.39
2018-08-09T19:36:10.852Z,96744.58
2018-08-09T19:38:39.240Z,96733.93
2018-08-09T19:41:07.650Z,96736.38
2018-08-09T19:43:35.994Z,96740.06
2018-08-09T19:46:04.347Z,96742.91
2018-08-09T19:48:32.987Z,96750.28
2018-08-09T19:51:01.376Z,96747.80
2018-08-09T19:53:29.722Z,96751.79
2018-08-09T19:55:58.052Z,96761.31
2018-08-09T19:58:26.378Z,96771.70
2018-08-09T20:00:54.722Z,96768.52
2018-08-09T20:03:23.318Z,96775.73
2018-08-09T20:05:51.657Z,96778.52
2018-08-09T20:08:20.034Z,96780.11
2018-08-09T20:10:48.767Z,96784.74
2018-08-09T20:13:17.076Z,96787.61
2018-08-09T20:15:45.430Z,96795.58
2018-08-09T20:18:13.762Z,96797.94
2018-08-09T20:20:42.207Z,96804.66
2018-08-09T20:23:10.587Z,96803.67
2018-08-09T20:25:38.901Z,96819.91
2018-08-09T20:28:07.261Z,96824.54
2018-08-09T20:30:35.627Z,96828.45
2018-08-09T20:33:03.971Z,96821.24
2018-08-09T20:35:32.308Z,96822.27
2018-08-09T20:38:00.622Z,96821.60
2018-08-09T20:40:28.951Z,96821.69
2018-08-09T20:42:57.311Z,96828.26
2018-08-09T20:45:25.995Z,96829.20
2018-08-09T20:47:54.335Z,96836.97
2018-08-09T20:50:24.394Z,96832.47
2018-08-09T20:52:52.751Z,96843.47
2018-08-09T20:55:21.070Z,96834.92
2018-08-09T20:57:50.170Z,96841.61
2018-08-09T21:00:22.616Z,96843.48
2018-08-09T21:02:52.767Z,96844.72
2018-08-09T21:05:23.647Z,96845.91
2018-08-09T21:07:53.042Z,96845.48
2018-08-09T21:10:21.466Z,96845.20
2018-08-09T21:12:49.809Z,96856.45
2018-08-09T21:15:19.018Z,96864.10
2018-08-09T21:17:47.359Z,96857.52
2018-08-09T21:20:15.910Z,96872.77
2018-08-09T21:22:45.630Z,96872.64
2018-08-09T21:25:14.245Z,96863.30
2018-08-09T21:27:42.826Z,96861.72
2018-08-09T21:30:13.420Z,96885.71
2018-08-09T21:32:41.758Z,96890.55
2018-08-09T21:35:10.662Z,96894.13
2018-08-09T21:37:39.623Z,96898.46
2018-08-09T21:40:09.107Z,96896.72
2018-08-09T21:42:37.439Z,96892.27
2018-08-09T21:45:14.591Z,96928.86
2018-08-09T21:47:43.235Z,96935.66
2018-08-09T21:50:14.869Z,96953.17
2018-08-09T21:52:43.282Z,96952.91
2018-08-09T21:55:12.987Z,96957.03
2018-08-09T21:57:41.885Z,96950.39
2018-08-09T22:00:21.058Z,96961.11
2018-08-09T22:02:49.374Z,96962.16
2018-08-09T22:05:22.974Z,96968.13
2018-08-09T22:07:56.859Z,96978.66
2018-08-09T22:10:30.491Z,96983.25
2018-08-09T22:13:04.160Z,96987.16
2018-08-09T22:15:37.766Z,96984.30
2018-08-09T22:18:11.903Z,96989.87
2018-08-09T22:22:50.579Z,96979.98
2018-08-09T22:25:18.899Z,96990.14
2018-08-09T22:27:47.226Z,97011.17
2018-08-09T22:30:16.735Z,97010.91
2018-08-09T22:32:45.047Z,97023.37
2018-08-09T22:35:13.391Z,97030.56
2018-08-09T22:37:41.706Z,97046.13
2018-08-09T22:40:10.043Z,97047.11
2018-08-09T22:42:38.355Z,97050.72
2018-08-09T22:45:06.690Z,97073.49
2018-08-09T22:47:35.319Z,97075.48
2018-08-09T22:50:04.970Z,97076.27
2018-08-09T22:52:33.282Z,97082.64
2018-08-09T22:55:01.588Z,97087.51
2018-08-09T22:57:30.254Z,97091.88
2018-08-09T22:59:58.595Z,97103.03
2018-08-09T23:02:26.934Z,97099.25
2018-08-09T23:04:55.255Z,97110.34
2018-08-09T23:07:23.566Z,97116.84
2018-08-09T23:09:51.939Z,97112.45
2018-08-09T23:12:20.246Z,97116.94
2018-08-09T23:14:48.598Z,97113.25
2018-08-09T23:17:16.911Z,97124.97
2018-08-09T23:19:45.260Z,97123.54
2018-08-09T23:22:17.636Z,97129.22
2018-08-09T23:24:45.955Z,97133.77
2018-08-09T23:27:14.259Z,97141.84
2018-08-09T23:29:42.572Z,97146.83
2018-08-09T23:32:11.223Z,97153.11
2018-08-09T23:34:39.571Z,97155.66
2018-08-09T23:37:07.896Z,97155.00
2018-08-09T23:39:36.312Z,97165.61
2018-08-09T23:42:04.599Z,97155.47
2018-08-09T23:44:32.902Z,97163.41
2018-08-09T23:47:01.215Z,97171.88
2018-08-09T23:49:29.531Z,97173.54
2018-08-09T23:51:57.838Z,97185.24
2018-08-09T23:54:26.190Z,97183.63
2018-08-09T23:56:54.515Z,97190.95
2018-08-09T23:59:22.862Z,97201.83
